Time;durP1;ratioP1;P1;durP2;ratioP2;P2;SDS_P1;SDS_P2;PMS_P1;PMS_P2;Temp;Humidity;BMP_temperature;BMP_pressure;BME280_temperature;BME280_humidity;BME280_pressure;Samples;Min_cycle;Max_cycle;Signal;HPM_P1;HPM_P2
2021/06/20 05:22:37;;;;;;;;;2.75;2.75;;;;;18.12;70.17;99814.84;5359375;23;45401;-91
2021/06/20 05:25:04;;;;;;;;;6.75;3.25;;;;;18.14;70.20;99804.75;5018674;28;45280;-92
2021/06/20 05:27:29;;;;;;;;;2.75;2.75;;;;;18.11;70.68;99788.94;4999962;28;47150;-90
2021/06/20 05:29:54;;;;;;;;;2.25;2.00;;;;;18.16;70.45;99802.78;5000396;28;45322;-92
2021/06/20 05:32:20;;;;;;;;;3.00;3.00;;;;;18.20;70.11;99809.56;5000020;28;45232;-91
2021/06/20 05:34:45;;;;;;;;;1.50;1.50;;;;;18.28;70.83;99808.78;5000816;28;45331;-91
2021/06/20 05:37:10;;;;;;;;;4.00;2.00;;;;;18.32;70.26;99807.47;5017174;28;45403;-91
2021/06/20 05:39:36;;;;;;;;;5.50;3.00;;;;;18.40;69.97;99818.34;4999842;28;45322;-91
2021/06/20 05:42:01;;;;;;;;;3.50;2.00;;;;;18.44;69.76;99822.41;5000046;28;45178;-91
2021/06/20 05:44:26;;;;;;;;;3.00;2.00;;;;;18.43;70.19;99823.41;5000123;28;45293;-90
2021/06/20 05:46:52;;;;;;;;;2.00;2.00;;;;;18.39;70.02;99794.25;4999291;28;47238;-90
2021/06/20 05:49:17;;;;;;;;;2.00;2.00;;;;;18.56;70.59;99806.84;4999362;28;45314;-89
2021/06/20 05:51:42;;;;;;;;;3.00;2.00;;;;;18.57;69.17;99813.94;4998791;28;45479;-90
2021/06/20 05:54:08;;;;;;;;;5.00;2.00;;;;;18.62;68.83;99810.78;5000495;28;45450;-89
2021/06/20 05:56:33;;;;;;;;;3.00;2.00;;;;;18.60;68.35;99810.09;5016565;28;45451;-87
2021/06/20 05:58:59;;;;;;;;;3.00;2.50;;;;;18.53;68.57;99807.19;4998501;28;45645;-88
2021/06/20 06:01:24;;;;;;;;;5.00;3.00;;;;;18.52;67.97;99810.84;5016780;28;45191;-87
2021/06/20 06:03:49;;;;;;;;;2.00;2.00;;;;;18.44;68.48;99824.22;5019373;28;45193;-94
2021/06/20 06:06:18;;;;;;;;;2.75;2.00;;;;;18.34;68.55;99808.19;5000821;28;47259;-93
2021/06/20 06:08:43;;;;;;;;;5.00;2.50;;;;;18.19;69.18;99780.13;4999874;28;45392;-93
2021/06/20 06:11:09;;;;;;;;;2.25;2.25;;;;;18.36;69.31;99808.88;5009229;28;45085;-94
2021/06/20 06:13:34;;;;;;;;;1.75;1.50;;;;;18.36;69.04;99791.88;5009196;28;45273;-94
2021/06/20 06:15:59;;;;;;;;;6.00;3.25;;;;;18.41;68.30;99798.50;5000757;28;47832;-94
2021/06/20 06:18:25;;;;;;;;;3.00;3.00;;;;;18.24;68.60;99775.09;5000880;28;45192;-93
2021/06/20 06:20:50;;;;;;;;;5.25;4.00;;;;;18.44;68.38;99806.25;5001951;28;45121;-92
2021/06/20 06:23:16;;;;;;;;;3.00;3.00;;;;;18.27;68.24;99782.88;5003540;28;45328;-94
2021/06/20 06:25:41;;;;;;;;;6.25;5.25;;;;;18.38;67.92;99790.72;5003173;28;47160;-93
2021/06/20 06:28:06;;;;;;;;;3.75;2.75;;;;;18.47;67.88;99805.13;4997626;28;45150;-88
2021/06/20 06:30:32;;;;;;;;;4.50;4.00;;;;;18.58;68.35;99810.25;5018333;28;45199;-93
2021/06/20 06:32:57;;;;;;;;;5.50;4.00;;;;;18.44;68.75;99773.09;5013399;28;45262;-92
2021/06/20 06:35:23;;;;;;;;;4.75;4.75;;;;;18.70;68.27;99805.47;5028312;28;47429;-92
2021/06/20 06:37:49;;;;;;;;;3.00;3.00;;;;;18.81;68.17;99804.34;5040785;28;45222;-93
2021/06/20 06:40:15;;;;;;;;;3.00;3.00;;;;;18.99;67.82;99828.59;5076711;28;44617;-94
2021/06/20 06:42:41;;;;;;;;;3.75;3.75;;;;;19.06;67.18;99818.06;5073396;28;44686;-89
2021/06/20 06:45:07;;;;;;;;;8.25;4.25;;;;;19.06;67.56;99818.88;5064990;28;48056;-87
2021/06/20 06:51:18;;;;;;;;;5.00;4.00;;;;;19.11;66.66;99815.72;6053642;22;46306;-93
2021/06/20 06:54:11;;;;;;;;;3.00;3.00;;;;;18.85;67.16;99768.03;5016302;28;45467;-93
2021/06/20 06:57:31;;;;;;;;;;;;;;;;;;;;;
2021/06/20 07:00:31;;;;;;;;;3.00;3.00;;;;;19.07;65.80;99772.09;4985521;28;44881;-94
2021/06/20 07:03:07;;;;;;;;;4.00;4.00;;;;;19.38;65.72;99825.50;4980469;28;45380;-92
2021/06/20 07:06:26;;;;;;;;;;;;;;;;;;;;;
2021/06/20 07:09:39;;;;;;;;;;;;;;;;;;;;;
2021/06/20 07:12:46;;;;;;;;;3.50;3.00;;;;;19.64;65.53;99840.81;4896810;29;45278;-93
2021/06/20 07:23:20;;;;;;;;;;;;;;;;;;;;;
2021/06/20 07:26:37;;;;;;;;;4.50;3.25;;;;;19.66;64.40;99798.31;4733193;29;45086;-93
2021/06/20 07:30:31;;;;;;;;;;;;;;;;;;;;;
2021/06/20 07:34:26;;;;;;;;;5.00;4.00;;;;;19.67;64.23;99806.25;4687398;30;44792;-94
2021/06/20 07:47:54;;;;;;;;;5.50;3.25;;;;;20.00;63.62;99798.28;4836971;28;44723;-94
2021/06/20 07:57:46;;;;;;;;;4.00;4.00;;;;;20.46;62.47;99814.06;4924733;28;44714;-94
2021/06/20 08:11:04;;;;;;;;;;;;;;;;;;;;;
2021/06/20 08:17:25;;;;;;;;;4.75;2.25;;;;;20.60;61.11;99793.66;5081220;28;45040;-93
2021/06/20 08:20:44;;;;;;;;;;;;;;;;;;;;;
2021/06/20 08:29:55;;;;;;;;;2.50;2.50;;;;;20.78;61.26;99828.63;5243508;22;45192;-93
2021/06/20 08:32:21;;;;;;;;;4.50;2.50;;;;;20.83;60.62;99826.25;4963778;28;45949;-92
2021/06/20 08:34:47;;;;;;;;;6.75;3.00;;;;;21.44;60.24;99811.47;4965278;28;45316;-86
2021/06/20 08:37:12;;;;;;;;;4.00;3.00;;;;;22.17;59.82;99817.59;4965160;28;45171;-83
2021/06/20 08:39:37;;;;;;;;;2.25;2.00;;;;;22.82;58.77;99818.19;4957903;28;45308;-83
2021/06/20 08:42:03;;;;;;;;;4.50;2.00;;;;;23.17;57.22;99832.94;4957279;28;45321;-82
2021/06/20 08:44:31;;;;;;;;;2.00;2.00;;;;;23.52;55.59;99822.41;4957834;28;45276;-83
2021/06/20 08:46:57;;;;;;;;;3.00;2.00;;;;;23.76;54.47;99818.53;4958808;28;45196;-84
2021/06/20 08:49:24;;;;;;;;;3.00;1.75;;;;;24.02;53.76;99808.25;4963009;28;45320;-91
2021/06/20 08:51:51;;;;;;;;;2.25;2.25;;;;;24.53;53.79;99810.88;4977892;28;45582;-90
2021/06/20 08:54:17;;;;;;;;;3.25;2.00;;;;;25.01;52.99;99806.69;4972325;28;45298;-87
2021/06/20 08:56:44;;;;;;;;;2.75;1.25;;;;;25.46;51.95;99809.97;4958359;28;45162;-91
2021/06/20 08:59:12;;;;;;;;;3.00;3.00;;;;;25.92;51.13;99803.88;4963769;28;45373;-89
2021/06/20 09:01:37;;;;;;;;;2.25;2.00;;;;;26.46;50.62;99801.34;4978115;28;45386;-88
2021/06/20 09:04:03;;;;;;;;;2.25;2.25;;;;;26.82;49.81;99775.59;4977992;28;45226;-85
2021/06/20 09:06:29;;;;;;;;;2.00;1.00;;;;;27.17;48.56;99767.16;4965640;28;45476;-88
2021/06/20 09:08:57;;;;;;;;;1.00;1.00;;;;;27.62;48.49;99764.53;4961640;28;45532;-86
2021/06/20 09:11:22;;;;;;;;;2.00;2.00;;;;;28.09;47.09;99758.03;4958938;28;45343;-85
2021/06/20 09:13:49;;;;;;;;;4.00;1.50;;;;;28.08;46.25;99751.72;4942955;28;45228;-89
2021/06/20 09:16:17;;;;;;;;;2.50;1.75;;;;;28.04;46.17;99750.50;4978546;28;45138;-88
2021/06/20 09:18:51;;;;;;;;;2.00;2.00;;;;;28.04;45.84;99740.38;4976840;28;45491;-85
2021/06/20 09:21:17;;;;;;;;;1.50;1.50;;;;;28.10;46.26;99735.13;4956598;28;45297;-85
2021/06/20 09:23:42;;;;;;;;;2.50;2.00;;;;;28.22;45.31;99739.66;4956221;28;45346;-85
2021/06/20 09:26:09;;;;;;;;;2.00;2.00;;;;;28.31;45.90;99731.19;4957797;28;45221;-85
2021/06/20 09:28:38;;;;;;;;;3.00;2.00;;;;;28.53;44.65;99743.44;4958756;28;45521;-83
2021/06/20 09:31:06;;;;;;;;;3.50;2.00;;;;;28.82;43.55;99741.09;4957445;28;45361;-84
2021/06/20 09:33:34;;;;;;;;;1.00;1.00;;;;;29.06;43.40;99753.06;4954213;28;45448;-85
2021/06/20 09:36:01;;;;;;;;;2.00;2.00;;;;;29.16;43.00;99746.22;4957090;28;45183;-84
2021/06/20 09:38:32;;;;;;;;;3.50;2.00;;;;;29.15;42.80;99756.34;4956989;28;45307;-85
2021/06/20 09:41:05;;;;;;;;;3.00;2.00;;;;;29.39;42.61;99760.09;4976272;28;45238;-85
2021/06/20 09:43:32;;;;;;;;;3.50;1.00;;;;;29.55;42.30;99758.66;4959815;28;45291;-85
2021/06/20 09:45:57;;;;;;;;;2.00;2.00;;;;;29.74;41.42;99764.09;4976438;28;45222;-85
2021/06/20 09:48:31;;;;;;;;;3.50;2.00;;;;;29.43;40.97;99769.53;4959322;28;46058;-88
2021/06/20 09:51:25;;;;;;;;;2.25;1.00;;;;;29.31;41.46;99754.09;4976019;28;45535;-87
2021/06/20 09:53:51;;;;;;;;;2.25;2.00;;;;;29.48;41.04;99755.16;4962222;28;45349;-87
2021/06/20 09:56:29;;;;;;;;;1.75;1.75;;;;;29.58;40.30;99752.72;4955009;28;45158;-84
2021/06/20 09:58:58;;;;;;;;;2.00;1.00;;;;;29.49;40.78;99751.34;4977845;28;45752;-87
2021/06/20 10:01:26;;;;;;;;;1.25;1.25;;;;;29.27;40.89;99745.50;4959923;28;45274;-86
2021/06/20 10:03:51;;;;;;;;;2.00;2.00;;;;;29.29;41.52;99737.06;4957527;28;45234;-83
2021/06/20 10:06:17;;;;;;;;;1.25;1.25;;;;;29.46;40.70;99735.41;4957222;28;45219;-85
2021/06/20 10:08:43;;;;;;;;;1.00;1.00;;;;;29.60;40.84;99736.91;4957770;28;46199;-83
2021/06/20 10:11:10;;;;;;;;;3.00;3.00;;;;;29.70;40.70;99725.41;4957664;28;45462;-87
2021/06/20 10:13:35;;;;;;;;;4.00;1.75;;;;;30.09;40.86;99720.44;4957063;28;45248;-86
2021/06/20 10:16:37;;;;;;;;;1.00;1.00;;;;;30.28;38.10;99726.66;4957371;28;45191;-85
2021/06/20 10:19:17;;;;;;;;;1.00;1.00;;;;;30.15;38.73;99704.97;4971764;28;48292;-87
2021/06/20 10:22:00;;;;;;;;;1.75;1.75;;;;;30.02;38.80;99710.66;4958796;28;45695;-87
2021/06/20 10:24:25;;;;;;;;;2.00;2.00;;;;;30.03;38.86;99696.72;4957823;28;45396;-86
2021/06/20 10:26:51;;;;;;;;;1.75;1.00;;;;;30.38;38.92;99701.41;4959656;28;45264;-87
2021/06/20 10:29:25;;;;;;;;;1.00;1.00;;;;;30.76;38.51;99691.94;4947065;28;48514;-87
2021/06/20 10:31:52;;;;;;;;;1.25;1.25;;;;;31.17;37.46;99680.22;4956731;28;45235;-87
2021/06/20 10:34:19;;;;;;;;;4.00;2.00;;;;;31.62;37.47;99682.25;4957785;28;45186;-88
2021/06/20 10:36:46;;;;;;;;;1.75;1.75;;;;;31.99;37.49;99677.16;4957393;28;45220;-87
2021/06/20 10:39:13;;;;;;;;;2.00;1.00;;;;;32.25;36.50;99674.06;4957350;28;48587;-88
2021/06/20 10:41:39;;;;;;;;;2.75;1.25;;;;;32.23;35.38;99654.22;4957375;28;45215;-86
2021/06/20 10:44:05;;;;;;;;;3.50;1.00;;;;;32.27;34.65;99639.72;4957227;28;45218;-88
2021/06/20 10:46:31;;;;;;;;;3.50;3.25;;;;;32.30;35.44;99624.66;4947834;28;45202;-87
2021/06/20 10:48:57;;;;;;;;;2.00;0.75;;;;;32.20;34.91;99619.00;4957488;28;47223;-88
2021/06/20 10:51:24;;;;;;;;;1.00;1.00;;;;;31.91;35.35;99605.28;4940008;28;45854;-87
2021/06/20 10:53:50;;;;;;;;;1.00;0.00;;;;;31.68;35.30;99596.09;4957559;28;45227;-88
2021/06/20 10:56:25;;;;;;;;;2.25;2.00;;;;;31.56;35.96;99585.13;4959545;28;45238;-88
2021/06/20 10:58:54;;;;;;;;;1.75;1.75;;;;;31.49;35.53;99598.19;4943025;28;47335;-87
2021/06/20 11:01:21;;;;;;;;;3.25;1.25;;;;;31.23;35.71;99600.47;4960607;28;45358;-88
2021/06/20 11:03:59;;;;;;;;;2.50;2.00;;;;;31.20;36.44;99589.97;4960291;28;45275;-88
2021/06/20 11:06:26;;;;;;;;;4.00;4.00;;;;;31.00;36.52;99606.84;4960410;28;45134;-88
2021/06/20 11:08:57;;;;;;;;;3.00;2.75;;;;;30.45;36.30;99592.47;4943120;28;47351;-88
2021/06/20 11:11:33;;;;;;;;;3.00;2.75;;;;;29.96;37.18;99600.06;4943019;28;45600;-87
2021/06/20 11:13:59;;;;;;;;;2.25;2.25;;;;;29.83;37.47;99600.22;4942752;28;45127;-92
2021/06/20 11:16:27;;;;;;;;;4.00;3.00;;;;;29.72;37.32;99604.63;4942972;28;45226;-85
2021/06/20 11:19:06;;;;;;;;;3.50;3.00;;;;;29.60;37.88;99613.66;4960386;28;45338;-87
2021/06/20 11:21:37;;;;;;;;;1.75;1.75;;;;;29.38;37.99;99610.56;4957764;28;45638;-84
2021/06/20 11:24:03;;;;;;;;;1.25;1.25;;;;;29.27;38.67;99597.69;4958822;28;45294;-92
2021/06/20 11:26:29;;;;;;;;;3.00;3.00;;;;;29.30;37.15;99604.59;4975387;28;45254;-91
2021/06/20 11:29:03;;;;;;;;;2.50;2.50;;;;;29.15;36.99;99604.97;4979528;28;45395;-91
2021/06/20 11:31:29;;;;;;;;;2.25;2.00;;;;;28.77;37.95;99595.94;4975668;28;45154;-85
2021/06/20 11:33:55;;;;;;;;;13.00;9.00;;;;;28.64;38.07;99590.63;4967831;28;45232;-86
2021/06/20 11:36:22;;;;;;;;;12.25;12.25;;;;;28.75;38.18;99592.63;4958588;28;45251;-86
2021/06/20 11:38:48;;;;;;;;;35.25;29.75;;;;;29.00;40.34;99595.28;4961162;28;46448;-85
2021/06/20 11:41:15;;;;;;;;;8.00;7.75;;;;;29.59;39.68;99592.81;4978294;28;45297;-86
2021/06/20 11:43:58;;;;;;;;;20.75;19.75;;;;;30.30;38.38;99600.34;4962002;28;45214;-88
2021/06/20 11:46:26;;;;;;;;;4.25;4.25;;;;;31.06;37.01;99602.31;4953550;28;45291;-89
2021/06/20 11:48:54;;;;;;;;;24.25;21.50;;;;;31.81;37.15;99595.78;4959633;28;47496;-89
2021/06/20 11:51:30;;;;;;;;;1.50;1.50;;;;;32.38;34.91;99613.22;4952119;28;45263;-87
2021/06/20 11:54:19;;;;;;;;;3.00;2.25;;;;;32.22;32.98;99606.63;4952655;28;45189;-88
2021/06/20 11:56:48;;;;;;;;;2.00;2.00;;;;;31.94;35.06;99594.63;4953955;28;45450;-88
2021/06/20 11:59:14;;;;;;;;;8.75;5.25;;;;;31.84;35.88;99591.72;4956007;28;47626;-89
2021/06/20 12:01:48;;;;;;;;;6.25;4.00;;;;;31.74;36.10;99586.03;4951536;28;45323;-90
2021/06/20 12:04:18;;;;;;;;;6.50;3.00;;;;;31.78;36.17;99587.19;4960833;28;45307;-89
2021/06/20 12:06:44;;;;;;;;;5.00;2.00;;;;;32.22;34.86;99583.81;4961007;28;45260;-88
2021/06/20 12:09:11;;;;;;;;;4.25;4.25;;;;;32.46;35.15;99577.00;4961724;28;47321;-89
2021/06/20 12:11:37;;;;;;;;;2.00;2.00;;;;;32.46;34.11;99566.00;4955979;28;45815;-89
2021/06/20 12:14:22;;;;;;;;;4.00;3.50;;;;;32.36;33.98;99552.13;4960666;28;45171;-89
2021/06/20 12:16:51;;;;;;;;;3.75;3.00;;;;;32.47;32.32;99570.44;4961362;28;45173;-89
2021/06/20 12:19:18;;;;;;;;;4.00;3.00;;;;;32.26;33.41;99555.53;4973039;28;47488;-87
2021/06/20 12:21:45;;;;;;;;;3.00;3.00;;;;;32.27;33.66;99559.97;4959759;28;45463;-86
2021/06/20 12:24:12;;;;;;;;;4.00;2.00;;;;;31.99;33.24;99558.13;4954490;28;45299;-87
2021/06/20 12:26:45;;;;;;;;;5.00;3.00;;;;;31.82;33.81;99559.00;4958208;28;45388;-87
2021/06/20 12:29:10;;;;;;;;;3.00;1.75;;;;;31.85;34.03;99563.13;4962538;28;46462;-87
2021/06/20 12:31:36;;;;;;;;;2.75;2.75;;;;;32.07;33.89;99552.22;4909584;28;45350;-87
2021/06/20 12:34:08;;;;;;;;;2.00;2.00;;;;;32.16;33.44;99544.41;4954545;28;45127;-87
2021/06/20 12:36:34;;;;;;;;;3.00;3.00;;;;;32.29;33.10;99541.28;4930671;28;45358;-87
2021/06/20 12:39:00;;;;;;;;;3.00;3.00;;;;;32.54;34.15;99548.25;4941317;28;47070;-89
2021/06/20 12:41:27;;;;;;;;;2.75;2.75;;;;;32.76;32.88;99547.44;4937371;28;45417;-86
2021/06/20 12:44:03;;;;;;;;;3.00;2.00;;;;;32.76;32.43;99544.69;4941474;28;45368;-87
2021/06/20 12:46:38;;;;;;;;;5.75;3.75;;;;;32.53;32.18;99530.06;4930621;28;45177;-87
2021/06/20 12:49:12;;;;;;;;;2.25;2.25;;;;;31.99;32.79;99525.16;4920218;28;47385;-88
2021/06/20 12:51:41;;;;;;;;;4.25;3.75;;;;;31.73;32.57;99523.91;4937357;28;45655;-88
2021/06/20 12:54:10;;;;;;;;;3.00;3.00;;;;;31.45;33.76;99528.34;4937521;28;45218;-87
2021/06/20 12:56:38;;;;;;;;;3.00;3.00;;;;;31.10;33.97;99524.72;4937492;28;45495;-87
2021/06/20 12:59:09;;;;;;;;;3.50;2.50;;;;;30.71;35.11;99521.72;4953053;28;46437;-81
2021/06/20 13:01:48;;;;;;;;;3.00;3.00;;;;;30.40;34.61;99523.78;4939086;28;45342;-84
2021/06/20 13:04:15;;;;;;;;;4.00;4.00;;;;;30.10;35.25;99522.03;4938368;28;45205;-82
2021/06/20 13:06:45;;;;;;;;;3.00;3.00;;;;;29.83;34.80;99524.41;4937856;28;45107;-81
2021/06/20 13:09:11;;;;;;;;;3.25;3.25;;;;;29.51;35.01;99515.63;4938508;28;45427;-81
2021/06/20 13:11:39;;;;;;;;;3.00;3.00;;;;;29.31;35.76;99521.41;4938083;28;45129;-81
2021/06/20 13:14:16;;;;;;;;;4.00;4.00;;;;;29.22;35.77;99523.63;4938603;28;45175;-80
2021/06/20 13:16:43;;;;;;;;;4.75;3.50;;;;;29.19;36.72;99524.09;4936766;28;45325;-81
2021/06/20 13:19:08;;;;;;;;;4.25;4.00;;;;;29.19;36.04;99516.69;4935308;28;46199;-82
2021/06/20 13:21:35;;;;;;;;;4.00;4.00;;;;;29.09;35.82;99516.44;4938082;28;45156;-80
2021/06/20 13:24:01;;;;;;;;;4.75;3.25;;;;;28.84;36.70;99506.44;4938995;28;45254;-81
2021/06/20 13:26:27;;;;;;;;;5.25;3.75;;;;;28.61;36.67;99498.09;4935209;28;45403;-82
2021/06/20 13:28:52;;;;;;;;;4.00;4.00;;;;;28.34;36.84;99496.50;4937735;28;46986;-81
2021/06/20 13:31:18;;;;;;;;;3.50;3.50;;;;;28.12;37.40;99496.13;4937370;28;45208;-80
2021/06/20 13:33:44;;;;;;;;;6.00;5.00;;;;;27.85;37.18;99496.34;4938983;28;45131;-78
2021/06/20 13:36:09;;;;;;;;;3.50;3.50;;;;;27.51;38.53;99490.31;4936537;28;45134;-80
2021/06/20 13:38:34;;;;;;;;;5.00;5.00;;;;;27.37;38.32;99489.56;4934625;28;45962;-80
2021/06/20 13:41:00;;;;;;;;;4.50;4.00;;;;;27.25;39.18;99485.88;4937966;28;45203;-81
2021/06/20 13:43:25;;;;;;;;;6.25;5.00;;;;;27.26;38.79;99486.69;4936206;28;45242;-80
2021/06/20 13:45:53;;;;;;;;;4.00;4.00;;;;;27.20;38.87;99486.50;4938929;28;45309;-80
2021/06/20 13:48:18;;;;;;;;;5.00;4.25;;;;;27.25;39.32;99474.09;4937757;28;46770;-80
2021/06/20 13:50:43;;;;;;;;;3.00;3.00;;;;;27.27;39.59;99470.09;4938477;28;45176;-80
2021/06/20 13:53:09;;;;;;;;;5.75;5.00;;;;;27.27;39.12;99466.53;4935264;28;45268;-80
2021/06/20 13:55:34;;;;;;;;;4.75;4.25;;;;;27.19;39.17;99467.63;4936360;28;45288;-80
2021/06/20 13:57:59;;;;;;;;;7.75;6.25;;;;;27.06;39.29;99457.66;4938415;28;45635;-80
2021/06/20 14:00:25;;;;;;;;;6.00;5.00;;;;;26.96;39.66;99458.13;4951977;28;45249;-81
2021/06/20 14:02:50;;;;;;;;;6.00;6.00;;;;;26.87;40.48;99454.81;4920785;28;45163;-80
2021/06/20 14:05:16;;;;;;;;;7.25;5.00;;;;;26.92;40.40;99451.47;4937284;28;45143;-80
2021/06/20 14:07:41;;;;;;;;;4.00;4.00;;;;;26.98;40.50;99439.66;4935939;28;46081;-80
2021/06/20 14:10:11;;;;;;;;;4.00;4.00;;;;;26.95;40.58;99426.47;4938335;28;45104;-80
2021/06/20 14:12:36;;;;;;;;;4.00;4.00;;;;;27.04;41.03;99425.13;4935413;28;45194;-80
2021/06/20 14:15:03;;;;;;;;;6.75;5.00;;;;;27.08;40.66;99427.41;4952861;28;45428;-80
2021/06/20 14:17:28;;;;;;;;;6.50;5.25;;;;;27.10;40.70;99426.16;4937368;28;47481;-80
2021/06/20 14:19:53;;;;;;;;;4.00;4.00;;;;;26.96;41.30;99417.22;4936665;28;45186;-80
2021/06/20 14:22:19;;;;;;;;;4.25;4.25;;;;;26.86;41.15;99408.69;4938469;28;45270;-80
2021/06/20 14:24:44;;;;;;;;;7.00;4.00;;;;;26.87;41.13;99408.47;4936954;28;45210;-80
2021/06/20 14:27:09;;;;;;;;;7.25;5.00;;;;;26.86;41.29;99397.78;4936855;28;45285;-80
2021/06/20 14:29:35;;;;;;;;;4.50;4.00;;;;;26.84;41.66;99392.53;4933399;28;45348;-80
2021/06/20 14:32:00;;;;;;;;;5.25;5.25;;;;;26.77;42.26;99399.94;4934976;28;45235;-80
2021/06/20 14:34:26;;;;;;;;;4.75;4.75;;;;;26.74;42.02;99391.38;4919789;28;45214;-80
2021/06/20 14:36:51;;;;;;;;;4.50;4.00;;;;;26.61;41.62;99390.34;4934467;28;45353;-80
2021/06/20 14:39:16;;;;;;;;;4.00;4.00;;;;;26.58;42.24;99393.53;4934940;28;45143;-80
2021/06/20 14:41:42;;;;;;;;;3.75;3.75;;;;;26.57;42.01;99385.56;4919953;28;45279;-79
2021/06/20 14:44:09;;;;;;;;;6.00;5.00;;;;;26.53;42.13;99388.69;4919141;28;45381;-80
2021/06/20 14:46:34;;;;;;;;;5.00;5.00;;;;;26.56;42.86;99386.59;4936927;28;46451;-87
2021/06/20 14:48:59;;;;;;;;;5.00;5.00;;;;;26.61;42.59;99376.72;4920529;28;45384;-85
2021/06/20 14:51:25;;;;;;;;;6.00;5.00;;;;;26.74;41.92;99381.28;4934750;28;45341;-85
2021/06/20 14:53:50;;;;;;;;;5.00;5.00;;;;;26.81;41.99;99383.97;4936474;28;45261;-88
2021/06/20 14:56:16;;;;;;;;;4.00;4.00;;;;;26.78;41.12;99368.03;4938193;28;45251;-87
2021/06/20 14:58:41;;;;;;;;;3.75;3.75;;;;;26.70;41.23;99375.44;4936653;28;45364;-87
2021/06/20 15:01:06;;;;;;;;;5.00;4.00;;;;;26.62;41.47;99377.56;4936603;28;45276;-87
2021/06/20 15:03:32;;;;;;;;;3.50;3.50;;;;;26.59;41.87;99380.72;4935681;28;45256;-85
2021/06/20 15:05:58;;;;;;;;;4.00;4.00;;;;;26.50;41.67;99377.41;4919409;28;45998;-86
2021/06/20 15:08:23;;;;;;;;;3.50;3.50;;;;;26.49;41.63;99383.91;4937735;28;45292;-86
2021/06/20 15:10:49;;;;;;;;;4.50;4.00;;;;;26.47;41.71;99362.31;4936349;28;45230;-86
2021/06/20 15:13:14;;;;;;;;;4.00;4.00;;;;;26.49;41.40;99365.69;4936640;28;45274;-86
2021/06/20 15:15:39;;;;;;;;;6.00;4.00;;;;;26.50;41.29;99361.88;4937705;28;45972;-86
2021/06/20 15:18:05;;;;;;;;;3.00;3.00;;;;;26.52;41.34;99353.50;4936095;28;45278;-86
2021/06/20 15:20:31;;;;;;;;;4.00;4.00;;;;;26.50;41.61;99353.72;4934552;28;45218;-86
2021/06/20 15:22:57;;;;;;;;;4.75;4.75;;;;;26.50;41.57;99350.97;4936705;28;45178;-86
2021/06/20 15:25:28;;;;;;;;;3.00;3.00;;;;;26.51;41.69;99349.13;4934386;28;45514;-86
2021/06/20 15:27:55;;;;;;;;;4.75;3.50;;;;;26.45;41.46;99352.69;4935951;28;45184;-87
2021/06/20 15:30:20;;;;;;;;;5.00;3.00;;;;;26.40;42.77;99345.19;4937222;28;45272;-86
2021/06/20 15:32:49;;;;;;;;;4.50;4.50;;;;;26.39;42.55;99340.78;4935312;28;45219;-87
2021/06/20 15:35:18;;;;;;;;;4.00;4.00;;;;;26.40;43.03;99339.72;4936180;28;45485;-86
2021/06/20 15:38:05;;;;;;;;;4.25;4.25;;;;;26.52;42.03;99364.38;4940690;28;45366;-87
2021/06/20 15:40:33;;;;;;;;;5.25;4.00;;;;;26.47;42.90;99361.50;4935790;28;45179;-87
2021/06/20 15:43:01;;;;;;;;;3.75;3.75;;;;;26.42;42.63;99361.31;4919795;28;45498;-87
2021/06/20 15:45:28;;;;;;;;;4.25;4.25;;;;;26.31;42.47;99341.06;4940639;28;45519;-86
2021/06/20 15:47:56;;;;;;;;;4.00;4.00;;;;;26.32;42.44;99356.31;4939495;28;45258;-87
2021/06/20 15:50:28;;;;;;;;;3.50;3.50;;;;;26.28;43.09;99365.97;4941078;28;45486;-86
2021/06/20 15:52:54;;;;;;;;;4.50;4.00;;;;;26.28;43.29;99365.97;4951298;28;45409;-86
2021/06/20 15:55:21;;;;;;;;;4.75;4.00;;;;;26.28;42.97;99349.63;4938678;28;46304;-85
2021/06/20 15:57:48;;;;;;;;;3.50;3.50;;;;;26.42;42.67;99353.97;4938757;28;45548;-86
2021/06/20 16:02:42;;;;;;;;;2.50;2.50;;;;;26.47;42.08;99343.25;4985977;23;46237;-87
2021/06/20 16:05:23;;;;;;;;;6.00;2.50;;;;;26.48;41.46;99335.91;4958506;28;45470;-87
2021/06/20 16:07:50;;;;;;;;;3.00;3.00;;;;;26.42;41.80;99326.72;4959279;28;45182;-86
2021/06/20 16:10:16;;;;;;;;;3.00;3.00;;;;;26.41;41.39;99332.38;4959886;28;45157;-86
2021/06/20 16:12:42;;;;;;;;;4.50;3.50;;;;;26.40;40.85;99349.81;4962492;28;45352;-88
2021/06/20 16:15:09;;;;;;;;;3.50;3.25;;;;;26.39;41.00;99342.69;4960023;28;45475;-84
2021/06/20 16:17:35;;;;;;;;;4.00;3.00;;;;;26.31;41.50;99336.44;4958098;28;45357;-86
2021/06/20 16:20:01;;;;;;;;;3.25;3.25;;;;;26.34;41.57;99333.25;4957979;28;45213;-87
2021/06/20 16:22:27;;;;;;;;;3.00;3.00;;;;;26.44;41.69;99338.25;4959587;28;45261;-86
2021/06/20 16:24:53;;;;;;;;;4.00;3.00;;;;;26.42;40.98;99340.34;4958756;28;46413;-87
2021/06/20 16:27:18;;;;;;;;;8.00;5.00;;;;;26.33;41.08;99338.94;4959217;28;45190;-87
2021/06/20 16:29:48;;;;;;;;;4.00;4.00;;;;;26.21;41.15;99317.00;4941497;28;45169;-86
2021/06/20 16:32:19;;;;;;;;;5.25;5.25;;;;;26.19;41.36;99313.63;4938397;28;45179;-86
2021/06/20 16:34:47;;;;;;;;;5.00;4.00;;;;;26.23;41.00;99323.06;4955895;28;45457;-87
2021/06/20 16:37:15;;;;;;;;;3.00;3.00;;;;;26.11;41.97;99303.84;4962030;28;45300;-92
2021/06/20 16:39:43;;;;;;;;;5.00;3.50;;;;;26.17;41.97;99311.13;4949462;28;45280;-91
2021/06/20 16:42:09;;;;;;;;;3.50;3.00;;;;;26.12;42.05;99300.06;4957355;28;45183;-90
2021/06/20 16:44:35;;;;;;;;;4.50;3.25;;;;;26.11;42.32;99303.84;4958495;28;47339;-92
2021/06/20 16:47:00;;;;;;;;;4.00;4.00;;;;;26.24;42.31;99305.66;4953154;28;45980;-93
2021/06/20 16:49:25;;;;;;;;;4.00;4.00;;;;;26.37;41.97;99299.31;4957560;28;45159;-90
2021/06/20 16:51:52;;;;;;;;;4.00;4.00;;;;;26.54;41.80;99299.63;4958589;28;45209;-92
2021/06/20 16:54:17;;;;;;;;;3.25;3.25;;;;;26.56;41.45;99292.03;4952363;28;47113;-90
2021/06/20 16:56:42;;;;;;;;;4.00;4.00;;;;;26.65;41.93;99292.59;4957930;28;45365;-91
2021/06/20 16:59:08;;;;;;;;;4.75;4.00;;;;;26.61;41.05;99288.63;4957298;28;45253;-93
2021/06/20 17:01:33;;;;;;;;;5.00;4.00;;;;;26.48;41.63;99289.56;4958398;28;45774;-91
2021/06/20 17:03:58;;;;;;;;;3.00;2.00;;;;;26.39;42.24;99293.63;4940301;28;47226;-91
2021/06/20 17:06:23;;;;;;;;;3.75;3.75;;;;;26.16;42.63;99284.13;4940747;28;45240;-92
2021/06/20 17:08:49;;;;;;;;;3.00;3.00;;;;;26.05;43.36;99290.25;4940320;28;45294;-92
2021/06/20 17:11:14;;;;;;;;;5.00;5.00;;;;;25.92;43.81;99293.84;4940820;28;45486;-92
2021/06/20 17:13:39;;;;;;;;;6.00;6.00;;;;;25.67;44.04;99286.41;4940612;28;46941;-92
2021/06/20 17:16:05;;;;;;;;;4.00;4.00;;;;;25.44;44.78;99287.72;4941438;28;45572;-92
2021/06/20 17:18:31;;;;;;;;;5.25;4.25;;;;;25.28;44.88;99297.16;4941816;28;45283;-90
2021/06/20 17:20:56;;;;;;;;;4.00;4.00;;;;;24.96;45.60;99277.91;4939675;28;45293;-89
2021/06/20 17:23:22;;;;;;;;;5.50;3.25;;;;;24.86;46.27;99296.53;4955873;28;47567;-81
2021/06/20 17:25:47;;;;;;;;;4.00;4.00;;;;;24.62;45.88;99285.22;4953747;28;45138;-81
2021/06/20 17:28:12;;;;;;;;;4.25;3.75;;;;;24.54;46.95;99279.13;4954238;28;45324;-84
2021/06/20 17:30:38;;;;;;;;;7.25;4.50;;;;;24.71;47.06;99294.03;4957823;28;46243;-82
2021/06/20 17:33:03;;;;;;;;;4.75;3.75;;;;;24.61;47.70;99271.84;4956494;28;47054;-86
2021/06/20 17:35:29;;;;;;;;;5.00;4.00;;;;;24.71;47.00;99288.59;4956066;28;45289;-82
2021/06/20 17:37:54;;;;;;;;;5.75;5.00;;;;;24.71;47.22;99287.75;4956608;28;45677;-86
2021/06/20 17:40:21;;;;;;;;;4.00;4.00;;;;;24.70;46.85;99292.34;4955710;28;45333;-82
2021/06/20 17:42:48;;;;;;;;;3.50;3.50;;;;;24.67;47.30;99281.91;4957470;28;47178;-81
2021/06/20 17:45:18;;;;;;;;;3.50;3.50;;;;;24.68;47.40;99280.03;4955678;28;45244;-82
2021/06/20 17:47:43;;;;;;;;;3.25;3.25;;;;;24.67;47.77;99292.78;4956882;28;45374;-82
2021/06/20 17:50:09;;;;;;;;;4.75;3.50;;;;;24.64;47.38;99298.59;4955709;28;45226;-81
2021/06/20 17:52:35;;;;;;;;;3.00;3.00;;;;;24.60;47.63;99297.38;4957013;28;45166;-81
2021/06/20 17:55:00;;;;;;;;;4.75;3.00;;;;;24.49;48.61;99300.66;4953941;28;45269;-85
2021/06/20 17:57:28;;;;;;;;;5.00;3.50;;;;;24.40;49.07;99322.59;4956722;28;45022;-84
2021/06/20 17:59:53;;;;;;;;;8.00;7.50;;;;;24.17;51.39;99322.94;4956494;28;45796;-82
2021/06/20 18:02:19;;;;;;;;;6.00;5.25;;;;;23.93;54.13;99324.31;4957563;28;46381;-82
2021/06/20 18:04:44;;;;;;;;;8.50;6.25;;;;;23.59;56.16;99329.53;4949904;28;45274;-88
2021/06/20 18:07:10;;;;;;;;;23.00;22.25;;;;;23.16;58.03;99342.38;4956059;28;45360;-88